Time;durP1;ratioP1;P1;durP2;ratioP2;P2;SDS_P1;SDS_P2;PMS_P1;PMS_P2;Temp;Humidity;BMP_temperature;BMP_pressure;BME280_temperature;BME280_humidity;BME280_pressure;Samples;Min_cycle;Max_cycle;Signal;HPM_P1;HPM_P2
2023/06/14 00:02:00;;;;;;;2.63;2.43;;;;;;;;;;5093167;28;20539;-57
2023/06/14 00:04:27;;;;;;;2.27;2.10;;;;;;;;;;5093141;28;20878;-58
2023/06/14 00:06:56;;;;;;;3.73;2.50;;;;;;;;;;5093052;28;20446;-56
2023/06/14 00:09:23;;;;;;;2.93;2.73;;;;;;;;;;5093018;28;20502;-58
2023/06/14 00:11:50;;;;;;;2.30;2.20;;;;;;;;;;5092933;28;20826;-56
2023/06/14 00:14:18;;;;;;;2.40;2.00;;;;;;;;;;5093046;28;20453;-55
2023/06/14 00:16:45;;;;;;;5.43;3.17;;;;;;;;;;5092984;28;20868;-57
2023/06/14 00:19:12;;;;;;;2.73;2.53;;;;;;;;;;5093000;28;20509;-58
2023/06/14 00:21:39;;;;;;;4.00;2.63;;;;;;;;;;5092828;28;20533;-57
2023/06/14 00:24:06;;;;;;;3.30;3.00;;;;;;;;;;5093165;28;20957;-59
2023/06/14 00:26:33;;;;;;;2.70;2.50;;;;;;;;;;5092645;28;20443;-58
2023/06/14 00:29:00;;;;;;;3.63;2.33;;;;;;;;;;5092963;28;20449;-57
2023/06/14 00:31:28;;;;;;;2.73;2.53;;;;;;;;;;5092832;28;20453;-56
2023/06/14 00:33:55;;;;;;;2.87;2.67;;;;;;;;;;5092848;28;20454;-58
2023/06/14 00:36:22;;;;;;;2.60;2.50;;;;;;;;;;5092729;28;20525;-58
2023/06/14 00:38:49;;;;;;;3.00;2.70;;;;;;;;;;5092621;28;20451;-57
2023/06/14 00:41:16;;;;;;;5.43;2.40;;;;;;;;;;5092989;28;20961;-58
2023/06/14 00:43:43;;;;;;;2.73;2.10;;;;;;;;;;5092776;28;20478;-57
2023/06/14 00:46:10;;;;;;;3.97;2.90;;;;;;;;;;5096762;28;20447;-58
2023/06/14 00:48:38;;;;;;;2.67;2.03;;;;;;;;;;5096726;28;20538;-57
2023/06/14 00:51:05;;;;;;;3.10;2.90;;;;;;;;;;5096609;28;20585;-57
2023/06/14 00:53:35;;;;;;;6.50;2.70;;;;;;;;;;5096644;28;20453;-58
2023/06/14 00:56:02;;;;;;;3.90;3.17;;;;;;;;;;5096495;28;20536;-60
2023/06/14 00:58:29;;;;;;;4.27;2.90;;;;;;;;;;5096722;28;20490;-57
2023/06/14 01:00:57;;;;;;;5.00;3.17;;;;;;;;;;5096626;28;20547;-57
2023/06/14 01:03:25;;;;;;;3.50;2.63;;;;;;;;;;5096553;28;20453;-57
2023/06/14 01:06:02;;;;;;;3.33;2.90;;;;;;;;;;5096245;28;20451;-58
2023/06/14 01:08:33;;;;;;;4.40;3.60;;;;;;;;;;5096589;28;20801;-58
2023/06/14 01:11:04;;;;;;;4.07;3.57;;;;;;;;;;5096380;28;20489;-58
2023/06/14 01:13:34;;;;;;;4.80;3.60;;;;;;;;;;5096306;28;20446;-58
2023/06/14 01:16:01;;;;;;;3.70;3.40;;;;;;;;;;5096124;28;20529;-58
2023/06/14 01:18:29;;;;;;;3.90;3.10;;;;;;;;;;5096016;28;20533;-58
2023/06/14 01:20:58;;;;;;;5.97;3.40;;;;;;;;;;5096294;28;20457;-58
2023/06/14 01:23:32;;;;;;;3.30;2.73;;;;;;;;;;5096225;28;20772;-58
2023/06/14 01:25:59;;;;;;;3.60;3.30;;;;;;;;;;5096117;28;20616;-58
2023/06/14 01:28:31;;;;;;;3.13;2.93;;;;;;;;;;5096051;28;20547;-58
2023/06/14 01:31:00;;;;;;;4.70;3.23;;;;;;;;;;5095799;28;20483;-58
2023/06/14 01:33:29;;;;;;;4.37;3.90;;;;;;;;;;5095868;28;21107;-58
2023/06/14 01:35:56;;;;;;;4.33;3.93;;;;;;;;;;5095924;28;20520;-57
2023/06/14 01:38:24;;;;;;;3.90;3.57;;;;;;;;;;5095826;28;21022;-57
2023/06/14 01:40:54;;;;;;;5.37;3.37;;;;;;;;;;5095801;28;20447;-58
2023/06/14 01:43:21;;;;;;;4.10;3.70;;;;;;;;;;5095784;28;20452;-57
2023/06/14 01:45:49;;;;;;;3.90;3.60;;;;;;;;;;5095764;28;20422;-58
2023/06/14 01:48:16;;;;;;;3.80;3.43;;;;;;;;;;5095657;28;20425;-57
2023/06/14 01:50:43;;;;;;;4.20;3.80;;;;;;;;;;5095593;28;20457;-58
2023/06/14 01:53:11;;;;;;;7.00;3.53;;;;;;;;;;5095567;28;20537;-57
2023/06/14 01:55:43;;;;;;;4.60;4.20;;;;;;;;;;5094362;28;20473;-57
2023/06/14 01:58:11;;;;;;;5.70;3.90;;;;;;;;;;5095241;28;20902;-56
2023/06/14 02:00:38;;;;;;;4.77;3.70;;;;;;;;;;5095527;28;20435;-59
2023/06/14 02:03:05;;;;;;;4.10;3.80;;;;;;;;;;5095499;28;20421;-55
2023/06/14 02:05:32;;;;;;;4.77;4.37;;;;;;;;;;5095477;28;20497;-58
2023/06/14 02:07:59;;;;;;;4.80;4.40;;;;;;;;;;5095202;28;20454;-58
2023/06/14 02:10:26;;;;;;;4.70;4.30;;;;;;;;;;5095037;28;20464;-58
2023/06/14 02:12:52;;;;;;;8.30;5.07;;;;;;;;;;5095360;28;20530;-57
2023/06/14 02:15:21;;;;;;;7.83;4.80;;;;;;;;;;5095242;28;20481;-58
2023/06/14 02:17:49;;;;;;;5.17;4.77;;;;;;;;;;5095089;28;20822;-58
2023/06/14 02:20:16;;;;;;;4.73;4.33;;;;;;;;;;5095097;28;20454;-58
2023/06/14 02:22:43;;;;;;;6.60;4.40;;;;;;;;;;5094955;28;20516;-58
2023/06/14 02:25:10;;;;;;;5.90;5.40;;;;;;;;;;5094875;28;20449;-56
2023/06/14 02:27:37;;;;;;;4.60;4.03;;;;;;;;;;5095021;28;20538;-57
2023/06/14 02:30:05;;;;;;;5.70;4.37;;;;;;;;;;5094718;28;20979;-57
2023/06/14 02:32:34;;;;;;;5.10;4.70;;;;;;;;;;5094882;28;20422;-58
2023/06/14 02:35:00;;;;;;;4.43;4.13;;;;;;;;;;5094785;28;20455;-58
2023/06/14 02:37:27;;;;;;;5.40;4.47;;;;;;;;;;5094608;28;20532;-57
2023/06/14 02:39:54;;;;;;;4.90;4.40;;;;;;;;;;5094559;28;20441;-57
2023/06/14 02:42:21;;;;;;;5.53;4.50;;;;;;;;;;5094716;28;20604;-58
2023/06/14 02:44:51;;;;;;;4.87;4.53;;;;;;;;;;5094659;28;20417;-57
2023/06/14 02:47:17;;;;;;;5.10;4.63;;;;;;;;;;5094408;28;20447;-57
2023/06/14 02:49:46;;;;;;;7.30;5.27;;;;;;;;;;5094616;28;20542;-57
2023/06/14 02:52:13;;;;;;;4.77;4.40;;;;;;;;;;5094235;28;20458;-58
2023/06/14 02:54:41;;;;;;;7.93;4.93;;;;;;;;;;5094413;28;20854;-56
2023/06/14 02:57:08;;;;;;;5.47;4.93;;;;;;;;;;5094279;28;20513;-57
2023/06/14 02:59:35;;;;;;;4.73;4.33;;;;;;;;;;5094234;28;20449;-58
2023/06/14 03:02:03;;;;;;;6.00;5.50;;;;;;;;;;5094282;28;20450;-57
2023/06/14 03:04:34;;;;;;;8.23;4.77;;;;;;;;;;5094322;28;20445;-56
2023/06/14 03:07:08;;;;;;;4.67;4.23;;;;;;;;;;5093589;28;20802;-58
2023/06/14 03:09:35;;;;;;;5.37;4.30;;;;;;;;;;5094117;28;20425;-58
2023/06/14 03:12:02;;;;;;;8.00;5.20;;;;;;;;;;5094103;28;20435;-57
2023/06/14 03:14:30;;;;;;;4.43;4.07;;;;;;;;;;5094106;28;20447;-58
2023/06/14 03:16:57;;;;;;;8.63;4.40;;;;;;;;;;5093953;28;20449;-57
2023/06/14 03:19:24;;;;;;;4.33;4.00;;;;;;;;;;5093820;28;20443;-56
2023/06/14 03:21:51;;;;;;;5.63;5.10;;;;;;;;;;5093996;28;20446;-56
2023/06/14 03:24:19;;;;;;;4.93;4.53;;;;;;;;;;5093872;28;20447;-58
2023/06/14 03:26:46;;;;;;;4.80;4.50;;;;;;;;;;5093808;28;20822;-57
2023/06/14 03:29:13;;;;;;;6.43;4.90;;;;;;;;;;5093749;28;20470;-58
2023/06/14 03:31:57;;;;;;;4.57;4.27;;;;;;;;;;5093423;28;20489;-57
2023/06/14 03:34:24;;;;;;;5.10;4.70;;;;;;;;;;5093809;28;20432;-59
2023/06/14 03:36:51;;;;;;;6.60;4.70;;;;;;;;;;5093709;28;20447;-58
2023/06/14 03:39:19;;;;;;;5.30;4.50;;;;;;;;;;5093592;28;20447;-58
2023/06/14 03:41:46;;;;;;;7.83;4.80;;;;;;;;;;5093419;28;20442;-58
2023/06/14 03:44:13;;;;;;;4.80;4.00;;;;;;;;;;5093383;28;20546;-58
2023/06/14 03:46:39;;;;;;;10.50;5.80;;;;;;;;;;5093145;28;20449;-54
2023/06/14 03:49:07;;;;;;;5.33;4.90;;;;;;;;;;5093533;28;20880;-57
2023/06/14 03:51:34;;;;;;;5.50;4.73;;;;;;;;;;5093289;28;20569;-58
2023/06/14 03:54:01;;;;;;;4.30;4.00;;;;;;;;;;5093276;28;20490;-58
2023/06/14 03:56:29;;;;;;;8.50;5.40;;;;;;;;;;5093010;28;20556;-57
2023/06/14 03:58:56;;;;;;;7.07;5.60;;;;;;;;;;5093143;28;20453;-57
2023/06/14 04:01:29;;;;;;;10.00;5.63;;;;;;;;;;5093579;28;20454;-58
2023/06/14 04:03:56;;;;;;;10.53;5.50;;;;;;;;;;5093227;28;20447;-57
2023/06/14 04:06:24;;;;;;;5.07;4.67;;;;;;;;;;5093016;28;20543;-57
2023/06/14 04:08:51;;;;;;;7.53;5.03;;;;;;;;;;5093006;28;20468;-57
2023/06/14 04:11:19;;;;;;;4.70;4.30;;;;;;;;;;5092747;28;20570;-56
2023/06/14 04:13:47;;;;;;;6.47;5.80;;;;;;;;;;5093183;28;20862;-58
2023/06/14 04:16:14;;;;;;;6.80;5.30;;;;;;;;;;5093108;28;20473;-57
2023/06/14 04:18:41;;;;;;;4.90;4.50;;;;;;;;;;5092623;28;20447;-58
2023/06/14 04:21:08;;;;;;;5.50;4.83;;;;;;;;;;5092955;28;20451;-57
2023/06/14 04:23:35;;;;;;;5.33;4.63;;;;;;;;;;5092928;28;21061;-58
2023/06/14 04:26:02;;;;;;;5.00;4.50;;;;;;;;;;5092650;28;20454;-58
2023/06/14 04:28:29;;;;;;;6.63;5.30;;;;;;;;;;5092652;28;20918;-57
2023/06/14 04:31:01;;;;;;;5.30;4.90;;;;;;;;;;5092780;28;20479;-58
2023/06/14 04:33:28;;;;;;;6.67;5.77;;;;;;;;;;5092874;28;20447;-58
2023/06/14 04:35:56;;;;;;;5.70;5.10;;;;;;;;;;5092766;28;20566;-57
2023/06/14 04:38:25;;;;;;;8.73;5.83;;;;;;;;;;5092669;28;20540;-57
2023/06/14 04:40:52;;;;;;;6.73;5.37;;;;;;;;;;5092919;28;20448;-57
2023/06/14 04:43:25;;;;;;;6.83;5.10;;;;;;;;;;5092647;28;20939;-57
2023/06/14 04:45:54;;;;;;;5.60;5.20;;;;;;;;;;5092821;28;20919;-57
2023/06/14 04:48:22;;;;;;;6.30;5.70;;;;;;;;;;5092706;28;20456;-56
2023/06/14 04:50:52;;;;;;;5.90;5.37;;;;;;;;;;5092622;28;20467;-59
2023/06/14 04:53:21;;;;;;;5.50;5.10;;;;;;;;;;5092801;28;20540;-57
2023/06/14 04:55:48;;;;;;;5.60;5.10;;;;;;;;;;5092426;28;20476;-56
2023/06/14 04:58:15;;;;;;;6.33;5.77;;;;;;;;;;5092514;28;20585;-57
2023/06/14 05:00:43;;;;;;;5.90;5.40;;;;;;;;;;5092494;28;20531;-57
2023/06/14 05:03:12;;;;;;;6.03;5.10;;;;;;;;;;5092622;28;20478;-55
2023/06/14 05:05:41;;;;;;;6.17;5.63;;;;;;;;;;5092349;28;20454;-57
2023/06/14 05:08:09;;;;;;;6.00;5.50;;;;;;;;;;5092567;28;20478;-59
2023/06/14 05:10:36;;;;;;;5.43;5.03;;;;;;;;;;5092427;28;20475;-53
2023/06/14 05:13:03;;;;;;;5.70;5.30;;;;;;;;;;5092366;28;20447;-57
2023/06/14 05:15:30;;;;;;;6.60;5.30;;;;;;;;;;5092314;28;20517;-58
2023/06/14 05:17:57;;;;;;;8.07;7.07;;;;;;;;;;5092169;28;20479;-57
2023/06/14 05:20:24;;;;;;;5.70;5.20;;;;;;;;;;5092166;28;20459;-57
2023/06/14 05:22:52;;;;;;;9.47;5.63;;;;;;;;;;5092170;28;21002;-57
2023/06/14 05:25:20;;;;;;;6.00;5.50;;;;;;;;;;5092423;28;21228;-57
2023/06/14 05:27:47;;;;;;;7.63;6.23;;;;;;;;;;5092077;28;20960;-57
2023/06/14 05:30:14;;;;;;;6.93;6.23;;;;;;;;;;5092919;28;20450;-56
2023/06/14 05:32:41;;;;;;;9.90;6.33;;;;;;;;;;5095592;28;20480;-57
2023/06/14 05:35:09;;;;;;;9.50;6.03;;;;;;;;;;5096025;28;20486;-57
2023/06/14 05:37:35;;;;;;;6.30;5.70;;;;;;;;;;5095788;28;20529;-57
2023/06/14 05:40:05;;;;;;;7.73;6.67;;;;;;;;;;5096121;28;20512;-57
2023/06/14 05:42:32;;;;;;;7.93;5.60;;;;;;;;;;5095952;28;20446;-57
2023/06/14 05:44:59;;;;;;;7.67;6.13;;;;;;;;;;5095619;28;20530;-57
2023/06/14 05:47:27;;;;;;;6.93;6.20;;;;;;;;;;5095468;28;20594;-57
2023/06/14 05:49:54;;;;;;;9.00;5.47;;;;;;;;;;5095825;28;20449;-57
2023/06/14 05:52:21;;;;;;;7.83;5.70;;;;;;;;;;5095681;28;20483;-57
2023/06/14 05:54:49;;;;;;;17.30;5.70;;;;;;;;;;5095304;28;20476;-57
2023/06/14 05:57:17;;;;;;;7.10;6.43;;;;;;;;;;5095352;28;20520;-57
2023/06/14 05:59:44;;;;;;;8.47;6.20;;;;;;;;;;5095274;28;20536;-58
2023/06/14 06:02:11;;;;;;;6.20;5.70;;;;;;;;;;5095577;28;20450;-58
2023/06/14 06:04:37;;;;;;;5.80;5.30;;;;;;;;;;5095363;28;20814;-57
2023/06/14 06:07:05;;;;;;;12.57;6.53;;;;;;;;;;5095239;28;20447;-56
2023/06/14 06:09:32;;;;;;;9.87;6.00;;;;;;;;;;5095249;28;20497;-57
2023/06/14 06:11:59;;;;;;;6.30;5.60;;;;;;;;;;5095086;28;20997;-58
2023/06/14 06:14:27;;;;;;;6.17;5.40;;;;;;;;;;5095011;28;20449;-57
2023/06/14 06:16:54;;;;;;;9.53;6.67;;;;;;;;;;5095162;28;20483;-56
2023/06/14 06:19:21;;;;;;;9.90;5.30;;;;;;;;;;5095096;28;20450;-57
2023/06/14 06:21:48;;;;;;;16.10;6.10;;;;;;;;;;5095122;28;20447;-57
2023/06/14 06:24:15;;;;;;;7.17;5.83;;;;;;;;;;5094936;28;20853;-55
2023/06/14 06:26:41;;;;;;;5.73;5.23;;;;;;;;;;5094689;28;20447;-58
2023/06/14 06:29:08;;;;;;;5.93;5.20;;;;;;;;;;5094771;28;20505;-58
2023/06/14 06:31:36;;;;;;;7.27;5.43;;;;;;;;;;5094755;28;20482;-57
2023/06/14 06:34:03;;;;;;;6.13;5.20;;;;;;;;;;5094870;28;20454;-56
2023/06/14 06:36:30;;;;;;;11.50;6.17;;;;;;;;;;5094687;28;20461;-57
2023/06/14 06:38:57;;;;;;;6.30;5.57;;;;;;;;;;5094737;28;20486;-55
2023/06/14 06:41:24;;;;;;;5.53;5.00;;;;;;;;;;5094242;28;20426;-57
2023/06/14 06:43:51;;;;;;;6.00;5.47;;;;;;;;;;5094234;28;20450;-56
2023/06/14 06:46:19;;;;;;;5.17;4.77;;;;;;;;;;5094477;28;20544;-56
2023/06/14 06:48:47;;;;;;;5.17;4.73;;;;;;;;;;5094546;28;20542;-57
2023/06/14 06:51:14;;;;;;;9.80;5.70;;;;;;;;;;5094631;28;20468;-56
2023/06/14 06:53:44;;;;;;;5.73;5.23;;;;;;;;;;5094432;28;21029;-59
2023/06/14 06:56:11;;;;;;;9.53;6.33;;;;;;;;;;5094240;28;20575;-58
2023/06/14 06:58:37;;;;;;;7.57;5.53;;;;;;;;;;5094539;28;20891;-57
2023/06/14 07:01:04;;;;;;;9.30;4.90;;;;;;;;;;5094352;28;20452;-56
2023/06/14 07:03:31;;;;;;;9.90;5.50;;;;;;;;;;5094192;28;20454;-57
2023/06/14 07:05:59;;;;;;;6.20;5.70;;;;;;;;;;5094171;28;20452;-56
2023/06/14 07:08:27;;;;;;;10.83;5.10;;;;;;;;;;5094120;28;20514;-57
2023/06/14 07:10:54;;;;;;;6.67;5.40;;;;;;;;;;5093976;28;20448;-57
2023/06/14 07:13:21;;;;;;;8.10;4.80;;;;;;;;;;5094026;28;20448;-62
2023/06/14 07:15:48;;;;;;;6.23;5.63;;;;;;;;;;5094264;28;20456;-59
2023/06/14 07:18:15;;;;;;;6.80;5.13;;;;;;;;;;5093971;28;20458;-59
2023/06/14 07:20:42;;;;;;;6.30;5.70;;;;;;;;;;5093997;28;20470;-61
2023/06/14 07:23:11;;;;;;;8.97;5.77;;;;;;;;;;5093711;28;20954;-61
2023/06/14 07:25:38;;;;;;;5.13;4.47;;;;;;;;;;5093756;28;20467;-60
2023/06/14 07:28:05;;;;;;;6.43;5.53;;;;;;;;;;5093816;28;20821;-59
2023/06/14 07:30:32;;;;;;;5.00;4.60;;;;;;;;;;5093528;28;20449;-58
2023/06/14 07:32:59;;;;;;;6.63;5.37;;;;;;;;;;5093578;28;20489;-62
2023/06/14 07:35:26;;;;;;;5.70;5.20;;;;;;;;;;5093812;28;20463;-57
2023/06/14 07:37:53;;;;;;;7.70;4.80;;;;;;;;;;5093417;28;20453;-59
2023/06/14 07:40:22;;;;;;;6.87;4.83;;;;;;;;;;5093634;28;20456;-59
2023/06/14 07:42:50;;;;;;;5.50;5.00;;;;;;;;;;5093603;28;20539;-59
2023/06/14 07:45:17;;;;;;;5.13;4.73;;;;;;;;;;5093367;28;20460;-59
2023/06/14 07:47:44;;;;;;;5.20;4.70;;;;;;;;;;5093185;28;20541;-58
2023/06/14 07:50:11;;;;;;;5.03;4.50;;;;;;;;;;5093265;28;20538;-59
2023/06/14 07:52:38;;;;;;;5.30;4.87;;;;;;;;;;5093377;28;20492;-59
2023/06/14 07:55:06;;;;;;;5.80;5.30;;;;;;;;;;5092199;28;20559;-61
2023/06/14 07:57:35;;;;;;;5.57;5.00;;;;;;;;;;5093421;28;20444;-55
2023/06/14 08:00:02;;;;;;;5.43;4.20;;;;;;;;;;5092939;28;20814;-56
2023/06/14 08:02:28;;;;;;;5.77;5.00;;;;;;;;;;5093132;28;20449;-56
2023/06/14 08:04:55;;;;;;;5.30;4.80;;;;;;;;;;5093264;28;20822;-53
2023/06/14 08:07:22;;;;;;;5.70;4.90;;;;;;;;;;5093116;28;20550;-56
2023/06/14 08:09:49;;;;;;;5.17;4.70;;;;;;;;;;5093169;28;20539;-57
2023/06/14 08:12:16;;;;;;;4.93;4.53;;;;;;;;;;5093013;28;20476;-54
2023/06/14 08:14:45;;;;;;;6.87;4.73;;;;;;;;;;5093015;28;20453;-56
2023/06/14 08:17:11;;;;;;;4.00;3.80;;;;;;;;;;5092799;28;20480;-55
2023/06/14 08:19:38;;;;;;;8.30;3.90;;;;;;;;;;5093139;28;20482;-57
2023/06/14 08:22:06;;;;;;;4.30;4.00;;;;;;;;;;5093006;28;20485;-57
2023/06/14 08:24:33;;;;;;;6.00;4.30;;;;;;;;;;5093276;28;20486;-57
2023/06/14 08:27:01;;;;;;;4.23;3.93;;;;;;;;;;5092780;28;20458;-57
2023/06/14 08:29:30;;;;;;;6.80;4.30;;;;;;;;;;5092792;28;20932;-55
2023/06/14 08:31:59;;;;;;;6.17;4.13;;;;;;;;;;5092850;28;20468;-56
2023/06/14 08:34:26;;;;;;;6.53;4.50;;;;;;;;;;5092858;28;20448;-56
2023/06/14 08:36:53;;;;;;;6.00;4.13;;;;;;;;;;5092452;28;20543;-58
2023/06/14 08:39:20;;;;;;;6.13;3.97;;;;;;;;;;5092830;28;20539;-58
2023/06/14 08:41:48;;;;;;;4.10;3.73;;;;;;;;;;5092717;28;20526;-58
2023/06/14 08:44:15;;;;;;;3.67;3.40;;;;;;;;;;5092409;28;20464;-58
2023/06/14 08:46:43;;;;;;;4.37;3.70;;;;;;;;;;5092672;28;20449;-58
2023/06/14 08:49:12;;;;;;;3.50;3.20;;;;;;;;;;5092797;28;20453;-58
2023/06/14 08:51:40;;;;;;;7.63;3.77;;;;;;;;;;5091992;28;20941;-58
2023/06/14 08:54:08;;;;;;;4.60;3.23;;;;;;;;;;5092582;28;20537;-57
2023/06/14 08:56:35;;;;;;;4.50;4.10;;;;;;;;;;5092454;28;20564;-57
2023/06/14 08:59:02;;;;;;;5.73;3.70;;;;;;;;;;5092614;28;20449;-58
2023/06/14 09:01:31;;;;;;;3.53;3.33;;;;;;;;;;5092420;28;20955;-58
2023/06/14 09:03:59;;;;;;;5.07;3.60;;;;;;;;;;5092486;28;20449;-59
2023/06/14 09:06:28;;;;;;;4.67;3.20;;;;;;;;;;5095029;28;20448;-58
2023/06/14 09:08:55;;;;;;;4.37;3.43;;;;;;;;;;5096196;28;20952;-58
2023/06/14 09:11:23;;;;;;;5.87;3.13;;;;;;;;;;5096102;28;21007;-58
2023/06/14 09:13:50;;;;;;;8.60;2.83;;;;;;;;;;5096328;28;20485;-59
2023/06/14 09:16:17;;;;;;;3.27;2.97;;;;;;;;;;5096072;28;20492;-56
2023/06/14 09:18:47;;;;;;;6.00;2.80;;;;;;;;;;5096114;28;20544;-58
2023/06/14 09:21:14;;;;;;;3.00;2.80;;;;;;;;;;5095921;28;20453;-57
2023/06/14 09:23:44;;;;;;;3.70;3.40;;;;;;;;;;5095871;28;20453;-58
2023/06/14 09:26:11;;;;;;;2.97;2.80;;;;;;;;;;5096166;28;20544;-57
2023/06/14 09:28:42;;;;;;;4.47;2.97;;;;;;;;;;5096127;28;20539;-58
2023/06/14 09:31:10;;;;;;;3.80;2.97;;;;;;;;;;5096073;28;20453;-58
2023/06/14 09:33:37;;;;;;;3.03;2.70;;;;;;;;;;5095814;28;20484;-56
2023/06/14 09:36:04;;;;;;;3.27;2.97;;;;;;;;;;5095674;28;20821;-58
2023/06/14 09:38:32;;;;;;;3.40;3.20;;;;;;;;;;5095936;28;20456;-56
2023/06/14 09:41:00;;;;;;;3.33;3.10;;;;;;;;;;5095886;28;20556;-60
2023/06/14 09:43:28;;;;;;;3.80;2.90;;;;;;;;;;5095840;28;20543;-58
2023/06/14 09:45:55;;;;;;;3.20;2.90;;;;;;;;;;5095518;28;20454;-55
2023/06/14 09:48:22;;;;;;;5.60;3.20;;;;;;;;;;5095388;28;20537;-58
2023/06/14 09:50:51;;;;;;;4.30;3.23;;;;;;;;;;5095218;28;20537;-58
2023/06/14 09:53:22;;;;;;;3.27;2.53;;;;;;;;;;5095417;28;20539;-57
2023/06/14 09:55:51;;;;;;;4.30;3.03;;;;;;;;;;5095116;28;20550;-59
2023/06/14 09:58:21;;;;;;;3.70;2.70;;;;;;;;;;5095332;28;20479;-58
2023/06/14 10:00:49;;;;;;;5.00;2.80;;;;;;;;;;5095362;28;20476;-57
2023/06/14 10:03:20;;;;;;;3.43;3.13;;;;;;;;;;5095240;28;20449;-60
2023/06/14 10:05:48;;;;;;;3.30;2.37;;;;;;;;;;5095639;28;20444;-58
2023/06/14 10:08:17;;;;;;;3.80;2.80;;;;;;;;;;5095381;28;20538;-58
2023/06/14 10:10:44;;;;;;;4.17;2.90;;;;;;;;;;5095095;28;20447;-58
2023/06/14 10:13:11;;;;;;;3.60;2.70;;;;;;;;;;5095088;28;20542;-61
2023/06/14 10:15:45;;;;;;;4.43;2.80;;;;;;;;;;5095228;28;20456;-59
2023/06/14 10:18:20;;;;;;;5.33;3.47;;;;;;;;;;5094079;28;20806;-59
2023/06/14 10:20:53;;;;;;;7.90;2.67;;;;;;;;;;5095222;28;20459;-59
2023/06/14 10:23:21;;;;;;;4.50;2.97;;;;;;;;;;5094981;28;20457;-56
2023/06/14 10:25:51;;;;;;;4.80;2.60;;;;;;;;;;5094845;28;20447;-58
2023/06/14 10:28:18;;;;;;;3.73;2.70;;;;;;;;;;5094771;28;20867;-60
2023/06/14 10:31:05;;;;;;;3.73;3.43;;;;;;;;;;5094635;28;20877;-58
2023/06/14 10:33:33;;;;;;;2.97;2.77;;;;;;;;;;5094555;28;20572;-58
2023/06/14 10:36:10;;;;;;;3.03;2.73;;;;;;;;;;5094743;28;20513;-58
2023/06/14 10:38:38;;;;;;;3.33;2.67;;;;;;;;;;5094546;28;20536;-59
2023/06/14 10:41:05;;;;;;;5.40;2.90;;;;;;;;;;5094383;28;20449;-57
2023/06/14 10:43:32;;;;;;;3.93;3.13;;;;;;;;;;5094391;28;20546;-59
2023/06/14 10:46:22;;;;;;;7.27;3.30;;;;;;;;;;5094528;28;20508;-59
2023/06/14 10:48:49;;;;;;;3.13;2.93;;;;;;;;;;5094464;28;20898;-60
2023/06/14 10:51:20;;;;;;;4.50;3.30;;;;;;;;;;5094274;28;20472;-58
2023/06/14 10:53:47;;;;;;;4.07;2.87;;;;;;;;;;5094435;28;21049;-56
2023/06/14 10:56:25;;;;;;;4.50;2.83;;;;;;;;;;5094283;28;20478;-60
2023/06/14 10:58:53;;;;;;;3.63;2.93;;;;;;;;;;5094130;28;20955;-59
2023/06/14 11:01:25;;;;;;;6.00;3.67;;;;;;;;;;5094272;28;20485;-58
2023/06/14 11:03:53;;;;;;;3.07;2.87;;;;;;;;;;5093934;28;20537;-59
2023/06/14 11:06:23;;;;;;;6.33;3.03;;;;;;;;;;5094234;28;20465;-56
2023/06/14 11:09:12;;;;;;;3.57;2.67;;;;;;;;;;5094126;28;20462;-58
2023/06/14 11:11:39;;;;;;;4.10;3.27;;;;;;;;;;5093924;28;20458;-59
2023/06/14 11:14:06;;;;;;;4.53;2.80;;;;;;;;;;5093748;28;20512;-61
2023/06/14 11:16:34;;;;;;;5.90;3.07;;;;;;;;;;5094272;28;20549;-57
2023/06/14 11:19:03;;;;;;;3.13;2.80;;;;;;;;;;5093975;28;20544;-59
2023/06/14 11:21:31;;;;;;;4.30;3.57;;;;;;;;;;5094007;28;20877;-57
2023/06/14 11:23:58;;;;;;;4.90;3.20;;;;;;;;;;5094309;28;20851;-58
2023/06/14 11:26:29;;;;;;;3.40;3.10;;;;;;;;;;5093721;28;20501;-58
2023/06/14 11:28:57;;;;;;;5.83;3.73;;;;;;;;;;5093301;28;20529;-58
2023/06/14 11:31:24;;;;;;;3.40;3.10;;;;;;;;;;5093750;28;20455;-58
2023/06/14 11:33:52;;;;;;;3.47;3.20;;;;;;;;;;5093573;28;20504;-57
2023/06/14 11:36:19;;;;;;;4.90;3.27;;;;;;;;;;5093483;28;20454;-56
2023/06/14 11:38:46;;;;;;;2.90;2.70;;;;;;;;;;5093336;28;20452;-59
2023/06/14 11:41:13;;;;;;;6.90;3.13;;;;;;;;;;5093274;28;20439;-59
2023/06/14 11:43:41;;;;;;;4.80;3.83;;;;;;;;;;5093778;28;20453;-59
2023/06/14 11:46:15;;;;;;;3.33;3.13;;;;;;;;;;5093370;28;20546;-61
2023/06/14 11:48:42;;;;;;;6.80;3.20;;;;;;;;;;5093195;28;20446;-61
2023/06/14 11:51:11;;;;;;;3.20;3.00;;;;;;;;;;5093289;28;20446;-59
2023/06/14 11:53:38;;;;;;;4.13;3.10;;;;;;;;;;5093027;28;20833;-59
2023/06/14 11:56:05;;;;;;;3.40;3.10;;;;;;;;;;5093036;28;20496;-59
2023/06/14 11:58:32;;;;;;;3.43;2.70;;;;;;;;;;5093179;28;20451;-59
2023/06/14 12:00:59;;;;;;;5.60;3.27;;;;;;;;;;5093206;28;20546;-59
2023/06/14 12:03:27;;;;;;;3.13;2.93;;;;;;;;;;5093021;28;20470;-59
2023/06/14 12:06:03;;;;;;;4.63;3.03;;;;;;;;;;5092843;28;20457;-60
2023/06/14 12:08:39;;;;;;;3.07;2.77;;;;;;;;;;5093071;28;20799;-59
2023/06/14 12:11:08;;;;;;;6.03;2.90;;;;;;;;;;5093133;28;20957;-61
2023/06/14 12:13:35;;;;;;;3.60;3.23;;;;;;;;;;5092778;28;20985;-58
2023/06/14 12:16:03;;;;;;;3.63;3.30;;;;;;;;;;5092830;28;20451;-58
2023/06/14 12:18:35;;;;;;;3.33;3.03;;;;;;;;;;5092644;28;20537;-59
2023/06/14 12:21:03;;;;;;;4.33;3.73;;;;;;;;;;5092743;28;20455;-59
2023/06/14 12:23:41;;;;;;;6.30;3.57;;;;;;;;;;5093010;28;20530;-58
2023/06/14 12:26:08;;;;;;;12.27;3.27;;;;;;;;;;5092735;28;20443;-59
2023/06/14 12:28:35;;;;;;;4.20;3.08;;;;;;;;;;5091963;28;20542;-58
2023/06/14 12:31:02;;;;;;;3.20;2.93;;;;;;;;;;5092696;28;20203;-58
2023/06/14 12:33:30;;;;;;;3.70;3.40;;;;;;;;;;5092530;28;20473;-58
2023/06/14 12:35:57;;;;;;;4.40;3.13;;;;;;;;;;5092804;28;20446;-58
2023/06/14 12:38:25;;;;;;;5.40;2.80;;;;;;;;;;5092432;28;20946;-58
2023/06/14 12:40:53;;;;;;;3.40;3.10;;;;;;;;;;5094788;28;20453;-58
2023/06/14 12:43:20;;;;;;;6.50;3.07;;;;;;;;;;5097235;28;20954;-58
2023/06/14 12:45:47;;;;;;;5.37;3.17;;;;;;;;;;5096737;28;20455;-59
2023/06/14 12:48:15;;;;;;;3.20;3.00;;;;;;;;;;5096796;28;20477;-58
2023/06/14 12:50:42;;;;;;;5.27;3.47;;;;;;;;;;5096628;28;21041;-59
2023/06/14 12:53:09;;;;;;;5.63;2.73;;;;;;;;;;5096650;28;20481;-58
2023/06/14 12:55:36;;;;;;;5.73;3.20;;;;;;;;;;5096512;28;20481;-58
2023/06/14 12:58:04;;;;;;;6.83;3.07;;;;;;;;;;5096703;28;20523;-58
2023/06/14 13:00:31;;;;;;;9.17;3.10;;;;;;;;;;5096510;28;21013;-59
2023/06/14 13:02:58;;;;;;;3.77;3.47;;;;;;;;;;5096775;28;20453;-58
2023/06/14 13:05:25;;;;;;;7.73;3.20;;;;;;;;;;5096499;28;20447;-58
2023/06/14 13:07:52;;;;;;;6.00;2.93;;;;;;;;;;5096362;28;21008;-59
2023/06/14 13:10:19;;;;;;;2.77;2.40;;;;;;;;;;5096550;28;20546;-58
2023/06/14 13:12:46;;;;;;;7.27;2.87;;;;;;;;;;5096573;28;20533;-58
2023/06/14 13:15:14;;;;;;;6.20;2.90;;;;;;;;;;5096165;28;20446;-59
2023/06/14 13:17:43;;;;;;;7.63;3.37;;;;;;;;;;5096379;28;20446;-58
2023/06/14 13:20:10;;;;;;;7.80;2.90;;;;;;;;;;5096180;28;20447;-58
2023/06/14 13:22:39;;;;;;;4.53;2.53;;;;;;;;;;5096391;28;20447;-58
2023/06/14 13:25:06;;;;;;;3.40;3.10;;;;;;;;;;5096132;28;20511;-58
2023/06/14 13:27:33;;;;;;;5.10;3.00;;;;;;;;;;5095949;28;20438;-58
2023/06/14 13:30:00;;;;;;;2.93;2.73;;;;;;;;;;5096248;28;20449;-58
2023/06/14 13:32:29;;;;;;;4.00;2.83;;;;;;;;;;5095944;28;20814;-59
2023/06/14 13:34:56;;;;;;;2.93;2.63;;;;;;;;;;5095681;28;20622;-58
2023/06/14 13:37:23;;;;;;;2.97;2.67;;;;;;;;;;5095665;28;20878;-58
2023/06/14 13:39:50;;;;;;;2.90;2.70;;;;;;;;;;5095763;28;20814;-58
2023/06/14 13:42:17;;;;;;;5.07;3.20;;;;;;;;;;5095974;28;20447;-58
2023/06/14 13:44:43;;;;;;;9.83;3.33;;;;;;;;;;5096145;28;20485;-58
2023/06/14 13:47:10;;;;;;;3.93;3.33;;;;;;;;;;5095724;28;20450;-58
2023/06/14 13:49:39;;;;;;;4.80;2.97;;;;;;;;;;5095725;28;20451;-58
2023/06/14 13:52:06;;;;;;;4.07;3.10;;;;;;;;;;5095474;28;20447;-58
2023/06/14 13:54:33;;;;;;;7.13;3.17;;;;;;;;;;5095318;28;20528;-58
2023/06/14 13:57:00;;;;;;;4.60;3.37;;;;;;;;;;5095519;28;20471;-58
2023/06/14 13:59:27;;;;;;;5.33;3.67;;;;;;;;;;5095609;28;20455;-59
2023/06/14 14:01:55;;;;;;;4.23;3.23;;;;;;;;;;5095269;28;20435;-58
2023/06/14 14:04:22;;;;;;;6.93;3.60;;;;;;;;;;5095414;28;20443;-58
2023/06/14 14:06:50;;;;;;;4.83;2.90;;;;;;;;;;5095222;28;20558;-58
2023/06/14 14:09:17;;;;;;;3.40;2.80;;;;;;;;;;5095020;28;20443;-58
2023/06/14 14:11:44;;;;;;;10.03;3.20;;;;;;;;;;5095380;28;20451;-59
2023/06/14 14:14:11;;;;;;;4.70;3.73;;;;;;;;;;5095234;28;20898;-58
2023/06/14 14:16:38;;;;;;;4.30;2.77;;;;;;;;;;5095034;28;20462;-58
2023/06/14 14:19:05;;;;;;;3.20;2.60;;;;;;;;;;5095076;28;20451;-58
2023/06/14 14:21:32;;;;;;;7.37;3.40;;;;;;;;;;5094993;28;20538;-58
2023/06/14 14:24:00;;;;;;;4.40;3.10;;;;;;;;;;5094905;28;20681;-58
2023/06/14 14:26:27;;;;;;;5.43;3.50;;;;;;;;;;5094844;28;20934;-59
2023/06/14 14:28:54;;;;;;;3.60;3.03;;;;;;;;;;5095040;28;20454;-58
2023/06/14 14:31:21;;;;;;;4.93;3.60;;;;;;;;;;5094948;28;20542;-58
2023/06/14 14:33:48;;;;;;;5.03;3.37;;;;;;;;;;5094658;28;20507;-58
2023/06/14 14:36:15;;;;;;;4.10;2.80;;;;;;;;;;5094612;28;20542;-59
2023/06/14 14:38:42;;;;;;;6.83;3.03;;;;;;;;;;5094557;28;20534;-58
2023/06/14 14:41:11;;;;;;;4.47;2.97;;;;;;;;;;5094684;28;20451;-58
2023/06/14 14:43:38;;;;;;;3.30;3.10;;;;;;;;;;5094645;28;20451;-58
2023/06/14 14:46:05;;;;;;;5.00;2.80;;;;;;;;;;5094560;28;20447;-58
2023/06/14 14:48:32;;;;;;;7.40;3.00;;;;;;;;;;5094457;28;20447;-58